TimeEDT,TemperatureF,Dew PointF,Humidity,Sea Level PressureIn,VisibilityMPH,Wind Direction,Wind SpeedMPH,Gust SpeedMPH,PrecipitationIn,Events,Conditions,WindDirDegrees,DateUTC
12:15 AM,58.5,53.1,82,30.01,10.0,South,3.5,-,N/A,,Clear,180,2012-10-05 04:15:00
12:35 AM,57.6,52.3,83,30.00,10.0,South,4.6,-,N/A,,Scattered Clouds,170,2012-10-05 04:35:00
12:55 AM,57.4,52.0,82,30.00,7.0,South,4.6,-,N/A,,Mostly Cloudy,170,2012-10-05 04:55:00
1:15 AM,58.1,52.7,82,30.00,10.0,South,4.6,-,N/A,,Overcast,180,2012-10-05 05:15:00
1:35 AM,57.6,52.0,82,30.00,10.0,South,4.6,-,N/A,,Scattered Clouds,190,2012-10-05 05:35:00
1:55 AM,56.5,50.9,82,29.99,10.0,SSW,3.5,-,N/A,,Clear,200,2012-10-05 05:55:00
2:15 AM,56.8,51.6,83,29.99,10.0,South,5.8,-,N/A,,Clear,190,2012-10-05 06:15:00
2:35 AM,56.5,51.1,82,29.99,10.0,SSW,4.6,-,N/A,,Clear,200,2012-10-05 06:35:00
2:55 AM,55.9,50.9,83,29.98,7.0,South,3.5,-,N/A,,Clear,190,2012-10-05 06:55:00
3:15 AM,55.4,50.2,83,29.98,7.0,South,3.5,-,N/A,,Mostly Cloudy,190,2012-10-05 07:15:00
3:35 AM,56.3,51.1,83,29.98,7.0,SSE,3.5,-,N/A,,Overcast,160,2012-10-05 07:35:00
3:55 AM,56.3,51.1,83,29.98,10.0,Calm,Calm,-,N/A,,Overcast,0,2012-10-05 07:55:00
4:15 AM,56.3,51.1,83,29.98,10.0,Calm,Calm,-,N/A,,Overcast,0,2012-10-05 08:15:00
4:35 AM,56.3,51.3,83,29.99,7.0,SSW,3.5,-,N/A,,Overcast,210,2012-10-05 08:35:00
4:55 AM,56.3,51.1,83,29.99,7.0,SW,3.5,-,N/A,,Overcast,220,2012-10-05 08:55:00
5:15 AM,56.3,51.4,84,29.99,7.0,SSW,4.6,-,N/A,,Overcast,200,2012-10-05 09:15:00
5:35 AM,55.9,50.9,83,29.99,7.0,SSW,5.8,-,N/A,,Mostly Cloudy,200,2012-10-05 09:35:00
5:55 AM,54.7,50.0,84,29.99,5.0,SSW,4.6,-,N/A,,Haze,210,2012-10-05 09:55:00
6:15 AM,53.8,48.9,84,30.00,4.0,SW,3.5,-,N/A,,Haze,220,2012-10-05 10:15:00
6:35 AM,53.8,49.1,84,29.99,5.0,SSW,4.6,-,N/A,,Haze,210,2012-10-05 10:35:00
6:55 AM,54.7,50.0,84,29.99,5.0,South,4.6,-,N/A,,Haze,190,2012-10-05 10:55:00
7:15 AM,53.2,48.6,84,29.99,2.5,SSW,5.8,-,N/A,,Clear,210,2012-10-05 11:15:00
7:35 AM,54.3,49.6,84,29.99,3.0,SW,5.8,-,N/A,,Clear,230,2012-10-05 11:35:00
7:55 AM,54.9,50.2,84,29.99,4.0,SW,5.8,-,N/A,,Haze,220,2012-10-05 11:55:00
8:15 AM,56.5,51.8,84,29.99,7.0,SSW,3.5,-,N/A,,Clear,200,2012-10-05 12:15:00
8:35 AM,58.8,53.1,81,30.00,7.0,Calm,Calm,-,N/A,,Clear,0,2012-10-05 12:35:00
8:55 AM,61.7,54.0,76,29.99,10.0,Calm,Calm,-,N/A,,Clear,0,2012-10-05 12:55:00
9:15 AM,61.5,54.5,78,29.99,10.0,Calm,Calm,-,N/A,,Clear,0,2012-10-05 13:15:00
9:35 AM,64.0,55.8,74,29.99,10.0,Calm,Calm,-,N/A,,Clear,0,2012-10-05 13:35:00
9:55 AM,64.4,54.0,69,29.98,10.0,SSE,3.5,-,N/A,,Scattered Clouds,160,2012-10-05 13:55:00
10:15 AM,66.0,55.6,69,29.98,10.0,SSE,5.8,-,N/A,,Scattered Clouds,160,2012-10-05 14:15:00
10:35 AM,67.3,56.1,67,29.97,10.0,SSE,6.9,-,N/A,,Scattered Clouds,160,2012-10-05 14:35:00
10:55 AM,68.4,53.6,59,29.96,10.0,South,6.9,-,N/A,,Clear,170,2012-10-05 14:55:00
11:15 AM,69.1,52.7,56,29.96,10.0,South,8.1,-,N/A,,Clear,190,2012-10-05 15:15:00
11:35 AM,69.8,52.2,53,29.96,10.0,South,6.9,-,N/A,,Clear,170,2012-10-05 15:35:00
11:55 AM,68.9,52.5,56,29.95,10.0,South,6.9,-,N/A,,Clear,170,2012-10-05 15:55:00
12:15 PM,71.8,53.8,53,29.95,10.0,South,8.1,-,N/A,,Clear,190,2012-10-05 16:15:00
12:35 PM,71.6,52.0,50,29.95,10.0,South,9.2,-,N/A,,Clear,180,2012-10-05 16:35:00
1:15 PM,71.1,54.1,55,29.93,10.0,South,5.8,-,N/A,,Mostly Cloudy,170,2012-10-05 17:15:00
1:35 PM,70.9,54.1,55,29.92,10.0,South,5.8,-,N/A,,Mostly Cloudy,170,2012-10-05 17:35:00
1:55 PM,71.6,53.1,52,29.91,10.0,South,6.9,-,N/A,,Mostly Cloudy,170,2012-10-05 17:55:00
2:15 PM,73.6,52.5,48,29.90,10.0,South,11.5,17.3,N/A,,Mostly Cloudy,190,2012-10-05 18:15:00
2:35 PM,74.3,51.4,45,29.90,10.0,South,8.1,-,N/A,,Scattered Clouds,180,2012-10-05 18:35:00
2:55 PM,73.6,49.1,42,29.89,10.0,South,6.9,-,N/A,,Mostly Cloudy,180,2012-10-05 18:55:00
3:15 PM,71.8,50.7,47,29.89,10.0,South,5.8,-,N/A,,Overcast,180,2012-10-05 19:15:00
3:35 PM,73.6,50.7,45,29.89,10.0,SSW,5.8,-,N/A,,Overcast,200,2012-10-05 19:35:00
3:55 PM,72.5,50.7,46,29.88,10.0,South,3.5,-,N/A,,Overcast,170,2012-10-05 19:55:00
4:15 PM,72.5,53.1,50,29.88,10.0,SSW,3.5,-,N/A,,Overcast,200,2012-10-05 20:15:00
4:35 PM,72.9,49.5,44,29.88,10.0,South,8.1,-,N/A,,Overcast,190,2012-10-05 20:35:00
4:55 PM,71.6,48.9,45,29.89,10.0,South,8.1,-,N/A,,Overcast,190,2012-10-05 20:55:00
5:15 PM,70.9,49.8,47,29.89,10.0,South,3.5,-,N/A,,Overcast,180,2012-10-05 21:15:00
5:35 PM,70.0,50.7,50,29.89,10.0,SSW,3.5,-,N/A,,Overcast,200,2012-10-05 21:35:00
5:55 PM,68.9,51.3,53,29.89,10.0,Calm,Calm,-,N/A,,Overcast,0,2012-10-05 21:55:00
6:15 PM,68.5,50.9,53,29.89,10.0,Calm,Calm,-,N/A,,Overcast,0,2012-10-05 22:15:00
6:35 PM,67.3,51.8,58,29.89,10.0,SSE,3.5,-,N/A,,Overcast,160,2012-10-05 22:35:00
6:55 PM,67.6,52.0,57,29.89,10.0,SSW,3.5,-,N/A,,Overcast,200,2012-10-05 22:55:00
7:15 PM,67.3,52.2,58,29.88,10.0,SSW,4.6,-,N/A,,Overcast,200,2012-10-05 23:15:00
7:35 PM,66.6,52.7,61,29.88,10.0,Calm,Calm,-,N/A,,Overcast,0,2012-10-05 23:35:00
7:55 PM,65.5,53.1,64,29.89,10.0,WSW,3.5,-,N/A,,Mostly Cloudy,240,2012-10-05 23:55:00
8:15 PM,63.5,52.9,68,29.88,10.0,Calm,Calm,-,N/A,,Scattered Clouds,0,2012-10-06 00:15:00
8:35 PM,60.3,52.7,76,29.88,10.0,Calm,Calm,-,N/A,,Clear,0,2012-10-06 00:35:00
8:55 PM,63.5,52.9,68,29.87,10.0,Calm,Calm,-,N/A,,Scattered Clouds,0,2012-10-06 00:55:00
9:15 PM,63.0,53.6,71,29.88,10.0,Calm,Calm,-,N/A,,Clear,0,2012-10-06 01:15:00
9:35 PM,60.3,54.5,81,29.88,10.0,Calm,Calm,-,N/A,,Mostly Cloudy,0,2012-10-06 01:35:00
9:55 PM,63.7,53.6,70,29.87,10.0,Calm,Calm,-,N/A,,Overcast,0,2012-10-06 01:55:00
10:15 PM,63.1,54.1,72,29.88,10.0,SSW,3.5,-,N/A,,Overcast,200,2012-10-06 02:15:00
10:35 PM,62.6,54.0,73,29.87,10.0,Calm,Calm,-,N/A,,Mostly Cloudy,0,2012-10-06 02:35:00
10:55 PM,63.0,53.8,72,29.87,10.0,South,3.5,-,N/A,,Mostly Cloudy,190,2012-10-06 02:55:00
11:15 PM,61.3,54.1,77,29.87,10.0,SW,5.8,-,N/A,,Mostly Cloudy,220,2012-10-06 03:15:00
11:35 PM,62.1,54.5,76,29.86,10.0,SSW,5.8,-,N/A,,Mostly Cloudy,210,2012-10-06 03:35:00
11:55 PM,62.2,54.5,76,29.86,10.0,SSW,4.6,-,N/A,,Mostly Cloudy,210,2012-10-06 03:55:00